createdAt,value
2023-04-01T00:04:15.122Z,96545.84
2023-04-01T00:09:20.386Z,96544.84
2023-04-01T00:14:24.230Z,96546.88
2023-04-01T00:19:27.253Z,96542.69
2023-04-01T00:24:33.796Z,96540.22
2023-04-01T00:29:37.294Z,96530.09
2023-04-01T00:34:42.386Z,96536.25
2023-04-01T00:39:47.008Z,96539.44
2023-04-01T00:44:52.885Z,96540.94
2023-04-01T00:49:59.314Z,96541.44
2023-04-01T00:55:08.801Z,96533.81
2023-04-01T01:00:16.064Z,96553.91
2023-04-01T01:05:21.161Z,96523.66
2023-04-01T01:10:31.868Z,96538.47
2023-04-01T01:15:42.300Z,96558.91
2023-04-01T01:21:21.712Z,96544.94
2023-04-01T01:26:44.771Z,96534.31
2023-04-01T01:31:58.471Z,96522.84
2023-04-01T01:37:10.852Z,96534.50
2023-04-01T01:42:19.714Z,96534.66
2023-04-01T01:47:25.528Z,96536.66
2023-04-01T01:52:30.471Z,96516.22
2023-04-01T01:57:36.803Z,96519.88
2023-04-01T02:02:42.541Z,96528.03
2023-04-01T02:07:52.767Z,96531.69
2023-04-01T02:13:01.571Z,96521.88
2023-04-01T02:18:06.250Z,96531.69
2023-04-01T02:23:12.689Z,96524.53
2023-04-01T02:28:20.836Z,96543.13
2023-04-01T02:33:25.719Z,96525.72
2023-04-01T02:38:30.149Z,96525.41
2023-04-01T02:43:35.740Z,96523.75
2023-04-01T02:48:38.576Z,96524.91
2023-04-01T02:53:42.991Z,96529.41
2023-04-01T02:58:45.918Z,96523.44
2023-04-01T03:03:49.146Z,96516.66
2023-04-01T03:08:59.501Z,96510.00
2023-04-01T03:14:03.021Z,96509.34
2023-04-01T03:19:06.990Z,96515.81
2023-04-01T03:24:12.294Z,96514.81
2023-04-01T03:29:16.900Z,96505.16
2023-04-01T03:34:20.512Z,96514.34
2023-04-01T03:39:24.770Z,96497.91
2023-04-01T03:44:28.325Z,96510.59
2023-04-01T03:49:33.122Z,96511.75
2023-04-01T03:54:37.458Z,96534.84
2023-04-01T03:59:41.475Z,96516.09
2023-04-01T04:04:44.692Z,96514.75
2023-04-01T04:09:51.170Z,96501.66
2023-04-01T04:14:53.968Z,96508.81
2023-04-01T04:19:56.722Z,96511.81
2023-04-01T04:25:01.010Z,96495.22
2023-04-01T04:30:04.648Z,96515.44
2023-04-01T04:35:08.372Z,96514.78
2023-04-01T04:40:13.898Z,96508.13
2023-04-01T04:45:18.301Z,96503.34
2023-04-01T04:50:29.782Z,96516.22
2023-04-01T04:55:34.227Z,96521.88
2023-04-01T05:00:58.226Z,96523.19
2023-04-01T05:06:06.253Z,96519.88
2023-04-01T05:11:14.073Z,96530.81
2023-04-01T05:16:21.727Z,96525.84
2023-04-01T05:21:24.843Z,96516.91
2023-04-01T05:26:31.601Z,96518.41
2023-04-01T05:31:34.476Z,96524.00
2023-04-01T05:36:38.500Z,96537.47
2023-04-01T05:41:42.998Z,96521.94
2023-04-01T05:46:45.844Z,96528.22
2023-04-01T05:52:06.385Z,96520.59
2023-04-01T05:57:13.377Z,96522.91
2023-04-01T06:02:19.175Z,96521.91
2023-04-01T06:07:24.131Z,96530.38
2023-04-01T06:12:52.781Z,96528.22
2023-04-01T06:18:12.260Z,96546.63
2023-04-01T06:23:40.473Z,96543.84
2023-04-01T06:29:18.998Z,96542.81
2023-04-01T06:34:49.153Z,96543.31
2023-04-01T06:40:23.782Z,96545.28
2023-04-01T06:45:38.376Z,96545.28
2023-04-01T06:51:10.580Z,96538.31
2023-04-01T06:56:49.138Z,96553.41
2023-04-01T07:02:03.791Z,96553.91
2023-04-01T07:07:16.838Z,96552.41
2023-04-01T07:12:38.744Z,96552.22
2023-04-01T07:17:56.408Z,96556.34
2023-04-01T07:23:03.081Z,96553.03
2023-04-01T07:28:15.451Z,96560.78
2023-04-01T07:33:32.721Z,96567.63
2023-04-01T07:38:45.636Z,96569.59
2023-04-01T07:44:00.498Z,96577.06
2023-04-01T07:49:15.867Z,96578.84
2023-04-01T07:54:26.156Z,96581.19
2023-04-01T07:59:35.909Z,96584.63
2023-04-01T08:05:12.952Z,96581.91
2023-04-01T08:10:23.665Z,96591.66
2023-04-01T08:15:55.450Z,96587.41
2023-04-01T08:21:18.982Z,96596.09
2023-04-01T08:26:32.934Z,96599.16
2023-04-01T08:31:41.726Z,96606.03
2023-04-01T08:36:54.576Z,96593.91
2023-04-01T08:42:26.204Z,96603.88
2023-04-01T08:48:18.375Z,96605.69
2023-04-01T08:53:35.604Z,96608.16
2023-04-01T08:59:08.222Z,96616.22
2023-04-01T09:04:30.166Z,96622.00
2023-04-01T09:09:54.741Z,96627.22
2023-04-01T09:15:40.023Z,96620.88
2023-04-01T09:21:00.573Z,96634.75
2023-04-01T09:26:28.010Z,96632.50
2023-04-01T09:31:50.374Z,96634.63
2023-04-01T09:37:22.926Z,96642.56
2023-04-01T09:42:46.049Z,96641.22
2023-04-01T09:48:11.780Z,96641.94
2023-04-01T09:53:29.389Z,96655.31
2023-04-01T09:59:03.004Z,96653.44
2023-04-01T10:04:56.390Z,96662.00
2023-04-01T10:10:31.373Z,96658.78
2023-04-01T10:15:53.307Z,96667.94
2023-04-01T10:21:09.829Z,96667.16
2023-04-01T10:26:49.768Z,96669.75
2023-04-01T10:32:48.809Z,96670.31
2023-04-01T10:38:31.140Z,96671.75
2023-04-01T10:44:13.611Z,96669.06
2023-04-01T10:49:46.498Z,96673.53
2023-04-01T10:54:56.473Z,96678.41
2023-04-01T11:00:34.202Z,96680.31
2023-04-01T11:06:32.599Z,96687.06
2023-04-01T11:12:12.180Z,96690.06
2023-04-01T11:17:46.142Z,96696.59
2023-04-01T11:23:21.267Z,96710.09
2023-04-01T11:28:55.631Z,96710.09
2023-04-01T11:34:12.708Z,96711.44
2023-04-01T11:39:26.640Z,96724.84
2023-04-01T11:44:45.502Z,96720.50
2023-04-01T11:50:12.772Z,96721.44
2023-04-01T11:55:37.794Z,96734.69
2023-04-01T12:00:57.707Z,96735.94
2023-04-01T12:06:07.203Z,96745.38
2023-04-01T12:11:20.116Z,96754.97
2023-04-01T12:16:42.901Z,96756.28
2023-04-01T12:21:56.393Z,96757.66
2023-04-01T12:27:12.982Z,96752.16
2023-04-01T12:32:26.183Z,96760.16
2023-04-01T12:37:38.599Z,96763.50
2023-04-01T12:42:58.110Z,96763.63
2023-04-01T12:48:54.829Z,96766.28
2023-04-01T12:54:20.714Z,96784.91
2023-04-01T12:59:55.415Z,96780.63
2023-04-01T13:05:14.686Z,96782.38
2023-04-01T13:10:32.899Z,96782.28
2023-04-01T13:15:44.450Z,96789.81
2023-04-01T13:20:54.119Z,96794.53
2023-04-01T13:26:14.101Z,96799.38
2023-04-01T13:31:33.199Z,96796.69
2023-04-01T13:36:44.177Z,96792.16
2023-04-01T13:42:07.321Z,96798.28
2023-04-01T13:47:29.827Z,96796.44
2023-04-01T13:52:49.819Z,96804.81
2023-04-01T13:58:13.534Z,96813.16
2023-04-01T14:03:40.227Z,96811.47
2023-04-01T14:09:12.668Z,96815.16
2023-04-01T14:14:31.443Z,96814.94
2023-04-01T14:20:00.425Z,96828.88
2023-04-01T14:25:33.718Z,96834.44
2023-04-01T14:31:11.521Z,96835.00
2023-04-01T14:36:36.322Z,96855.13
2023-04-01T14:41:50.599Z,96859.00
2023-04-01T14:47:20.123Z,96853.31
2023-04-01T14:52:30.617Z,96856.09
2023-04-01T14:57:35.985Z,96863.88
2023-04-01T15:02:51.523Z,96854.56
2023-04-01T15:08:19.911Z,96875.63
2023-04-01T15:13:45.692Z,96878.13
2023-04-01T15:19:00.486Z,96885.41
2023-04-01T15:24:13.686Z,96887.00
2023-04-01T15:29:46.707Z,96893.72
2023-04-01T15:34:56.709Z,96901.19
2023-04-01T15:40:10.680Z,96906.72
2023-04-01T15:45:37.152Z,96916.13
2023-04-01T15:50:51.396Z,96920.34
2023-04-01T15:56:01.933Z,96912.66
2023-04-01T16:01:20.511Z,96925.03
2023-04-01T16:06:45.749Z,96935.13
2023-04-01T16:11:59.205Z,96937.13
2023-04-01T16:17:15.053Z,96935.97
2023-04-01T16:22:25.416Z,96936.00
2023-04-01T16:27:38.818Z,96944.16
2023-04-01T16:32:51.380Z,96948.91
2023-04-01T16:38:01.057Z,96950.63
2023-04-01T16:43:14.375Z,96962.19
2023-04-01T16:48:23.677Z,96970.88
2023-04-01T16:53:38.400Z,96975.09
2023-04-01T16:58:59.679Z,96995.41
2023-04-01T17:04:13.349Z,96997.56
2023-04-01T17:09:39.822Z,97004.56
2023-04-01T17:15:01.593Z,97011.75
2023-04-01T17:20:26.125Z,97023.69
2023-04-01T17:25:48.829Z,97037.00
2023-04-01T17:31:03.368Z,97040.50
2023-04-01T17:36:14.498Z,97051.09
2023-04-01T17:41:31.352Z,97057.59
2023-04-01T17:46:44.562Z,97072.53
2023-04-01T17:51:55.415Z,97077.19
2023-04-01T17:57:16.395Z,97089.16
2023-04-01T18:02:33.129Z,97094.44
2023-04-01T18:08:05.367Z,97097.06
2023-04-01T18:13:31.709Z,97104.66
2023-04-01T18:18:54.272Z,97113.28
2023-04-01T18:24:02.652Z,97118.25
2023-04-01T18:29:20.622Z,97132.72
2023-04-01T18:34:41.668Z,97138.50
2023-04-01T18:39:52.155Z,97145.13
2023-04-01T18:44:59.346Z,97153.22
2023-04-01T18:50:17.469Z,97159.16
2023-04-01T18:55:31.668Z,97169.56
2023-04-01T19:00:40.400Z,97173.53
2023-04-01T19:05:47.803Z,97184.47
2023-04-01T19:11:00.183Z,97188.13
2023-04-01T19:16:11.096Z,97198.06
2023-04-01T19:21:20.546Z,97205.19
2023-04-01T19:26:29.018Z,97214.16
2023-04-01T19:31:46.997Z,97225.78
2023-04-01T19:36:55.596Z,97225.41
2023-04-01T19:42:03.492Z,97234.94
2023-04-01T19:47:22.201Z,97238.03
2023-04-01T19:52:33.017Z,97253.97
2023-04-01T19:57:42.649Z,97245.63
2023-04-01T20:03:07.823Z,97255.72
2023-04-01T20:08:19.640Z,97259.53
2023-04-01T20:13:35.443Z,97271.81
2023-04-01T20:18:47.409Z,97284.25
2023-04-01T20:23:58.886Z,97283.44
2023-04-01T20:29:25.498Z,97291.56
2023-04-01T20:34:46.731Z,97303.84
2023-04-01T20:40:23.028Z,97301.50
2023-04-01T20:45:36.101Z,97296.34
2023-04-01T20:50:48.982Z,97300.81
2023-04-01T20:56:13.750Z,97309.78
2023-04-01T21:01:28.519Z,97319.72
2023-04-01T21:06:50.478Z,97324.72
2023-04-01T21:12:07.454Z,97329.22
2023-04-01T21:17:15.520Z,97339.56
2023-04-01T21:22:43.747Z,97345.84
2023-04-01T21:28:06.283Z,97346.69
2023-04-01T21:33:28.766Z,97346.38
2023-04-01T21:38:50.427Z,97361.50
2023-04-01T21:44:29.990Z,97364.00
2023-04-01T21:49:57.572Z,97375.63
2023-04-01T21:55:39.885Z,97380.78
2023-04-01T22:00:48.540Z,97392.25
2023-04-01T22:05:57.610Z,97398.41
2023-04-01T22:11:10.751Z,97395.59
2023-04-01T22:16:26.839Z,97403.56
2023-04-01T22:21:39.718Z,97410.72
2023-04-01T22:26:51.611Z,97418.81
2023-04-01T22:32:02.021Z,97412.53
2023-04-01T22:37:10.498Z,97425.00
2023-04-01T22:42:28.562Z,97433.09
2023-04-01T22:47:42.507Z,97433.09
2023-04-01T22:52:51.125Z,97442.06
2023-04-01T22:57:59.008Z,97438.41
2023-04-01T23:03:20.834Z,97450.72
2023-04-01T23:09:11.022Z,97455.91
2023-04-01T23:14:52.119Z,97458.00
2023-04-01T23:20:06.808Z,97464.47
2023-04-01T23:25:25.144Z,97470.91
2023-04-01T23:30:51.471Z,97478.75
2023-04-01T23:36:06.030Z,97486.16
2023-04-01T23:41:19.027Z,97487.00
2023-04-01T23:46:23.393Z,97490.78
2023-04-01T23:51:31.908Z,97503.09
2023-04-01T23:56:43.679Z,97507.53
